sensor_id;sensor_type;location;lat;lon;timestamp;P1;durP1;ratioP1;P2;durP2;ratioP2
29958;SDS011;16815;51.100;6.516;2023-02-28T00:01:13;7.87;;;6.20;;
29958;SDS011;16815;51.100;6.516;2023-02-28T00:03:39;9.47;;;7.00;;
29958;SDS011;16815;51.100;6.516;2023-02-28T00:06:05;8.03;;;6.57;;
29958;SDS011;16815;51.100;6.516;2023-02-28T00:08:32;6.93;;;5.80;;
29958;SDS011;16815;51.100;6.516;2023-02-28T00:11:02;7.23;;;6.40;;
29958;SDS011;16815;51.100;6.516;2023-02-28T00:13:28;11.53;;;6.17;;
29958;SDS011;16815;51.100;6.516;2023-02-28T00:16:06;10.33;;;6.17;;
29958;SDS011;16815;51.100;6.516;2023-02-28T00:18:33;12.20;;;6.53;;
29958;SDS011;16815;51.100;6.516;2023-02-28T00:20:59;8.53;;;6.07;;
29958;SDS011;16815;51.100;6.516;2023-02-28T00:23:26;8.53;;;6.30;;
29958;SDS011;16815;51.100;6.516;2023-02-28T00:25:52;7.80;;;6.10;;
29958;SDS011;16815;51.100;6.516;2023-02-28T00:28:18;7.47;;;6.67;;
29958;SDS011;16815;51.100;6.516;2023-02-28T00:30:44;9.13;;;6.13;;
29958;SDS011;16815;51.100;6.516;2023-02-28T00:33:10;8.17;;;6.33;;
29958;SDS011;16815;51.100;6.516;2023-02-28T00:35:36;9.90;;;6.73;;
29958;SDS011;16815;51.100;6.516;2023-02-28T00:38:02;9.27;;;6.10;;
29958;SDS011;16815;51.100;6.516;2023-02-28T00:40:28;7.87;;;5.50;;
29958;SDS011;16815;51.100;6.516;2023-02-28T00:42:54;8.03;;;5.73;;
29958;SDS011;16815;51.100;6.516;2023-02-28T00:45:20;7.80;;;6.03;;
29958;SDS011;16815;51.100;6.516;2023-02-28T00:47:46;8.00;;;5.73;;
29958;SDS011;16815;51.100;6.516;2023-02-28T00:50:15;6.57;;;5.90;;
29958;SDS011;16815;51.100;6.516;2023-02-28T00:52:41;8.20;;;6.00;;
29958;SDS011;16815;51.100;6.516;2023-02-28T00:55:07;6.60;;;5.80;;
29958;SDS011;16815;51.100;6.516;2023-02-28T00:57:33;8.67;;;5.67;;
29958;SDS011;16815;51.100;6.516;2023-02-28T00:59:59;6.23;;;5.33;;
29958;SDS011;16815;51.100;6.516;2023-02-28T01:02:25;6.77;;;5.27;;
29958;SDS011;16815;51.100;6.516;2023-02-28T01:04:51;9.53;;;5.60;;
29958;SDS011;16815;51.100;6.516;2023-02-28T01:07:17;6.23;;;5.20;;
29958;SDS011;16815;51.100;6.516;2023-02-28T01:09:43;6.27;;;4.80;;
29958;SDS011;16815;51.100;6.516;2023-02-28T01:12:09;6.97;;;5.17;;
29958;SDS011;16815;51.100;6.516;2023-02-28T01:14:35;6.60;;;4.93;;
29958;SDS011;16815;51.100;6.516;2023-02-28T01:17:01;8.67;;;5.23;;
29958;SDS011;16815;51.100;6.516;2023-02-28T01:19:27;7.80;;;4.97;;
29958;SDS011;16815;51.100;6.516;2023-02-28T01:21:53;10.20;;;5.00;;
29958;SDS011;16815;51.100;6.516;2023-02-28T01:24:19;6.97;;;4.50;;
29958;SDS011;16815;51.100;6.516;2023-02-28T01:26:45;6.70;;;4.77;;
29958;SDS011;16815;51.100;6.516;2023-02-28T01:29:11;6.90;;;4.93;;
29958;SDS011;16815;51.100;6.516;2023-02-28T01:31:37;8.77;;;4.60;;
29958;SDS011;16815;51.100;6.516;2023-02-28T01:34:03;9.77;;;5.10;;
29958;SDS011;16815;51.100;6.516;2023-02-28T01:36:29;5.83;;;4.60;;
29958;SDS011;16815;51.100;6.516;2023-02-28T01:38:55;5.97;;;5.20;;
29958;SDS011;16815;51.100;6.516;2023-02-28T01:41:28;7.00;;;5.20;;
29958;SDS011;16815;51.100;6.516;2023-02-28T01:43:59;6.07;;;5.23;;
29958;SDS011;16815;51.100;6.516;2023-02-28T01:46:28;6.63;;;4.80;;
29958;SDS011;16815;51.100;6.516;2023-02-28T01:48:55;5.63;;;5.00;;
29958;SDS011;16815;51.100;6.516;2023-02-28T01:51:30;8.53;;;4.83;;
29958;SDS011;16815;51.100;6.516;2023-02-28T01:54:05;6.03;;;4.70;;
29958;SDS011;16815;51.100;6.516;2023-02-28T01:56:38;7.17;;;4.37;;
29958;SDS011;16815;51.100;6.516;2023-02-28T01:59:04;6.33;;;4.73;;
29958;SDS011;16815;51.100;6.516;2023-02-28T02:01:30;6.10;;;4.57;;
29958;SDS011;16815;51.100;6.516;2023-02-28T02:03:57;5.27;;;4.77;;
29958;SDS011;16815;51.100;6.516;2023-02-28T02:06:29;6.40;;;4.83;;
29958;SDS011;16815;51.100;6.516;2023-02-28T02:08:55;9.57;;;4.93;;
29958;SDS011;16815;51.100;6.516;2023-02-28T02:11:22;6.07;;;4.80;;
29958;SDS011;16815;51.100;6.516;2023-02-28T02:14:05;5.20;;;4.67;;
29958;SDS011;16815;51.100;6.516;2023-02-28T02:22:09;4.67;;;4.07;;
29958;SDS011;16815;51.100;6.516;2023-02-28T02:29:55;6.57;;;4.37;;
29958;SDS011;16815;51.100;6.516;2023-02-28T02:35:27;6.23;;;4.60;;
29958;SDS011;16815;51.100;6.516;2023-02-28T02:40:27;8.50;;;5.70;;
29958;SDS011;16815;51.100;6.516;2023-02-28T02:42:59;8.93;;;6.10;;
29958;SDS011;16815;51.100;6.516;2023-02-28T02:45:34;6.73;;;6.07;;
29958;SDS011;16815;51.100;6.516;2023-02-28T02:48:04;8.87;;;6.00;;
29958;SDS011;16815;51.100;6.516;2023-02-28T02:50:37;6.57;;;5.73;;
29958;SDS011;16815;51.100;6.516;2023-02-28T02:53:04;10.03;;;6.30;;
29958;SDS011;16815;51.100;6.516;2023-02-28T02:55:31;8.53;;;6.47;;
29958;SDS011;16815;51.100;6.516;2023-02-28T02:58:00;9.37;;;6.70;;
29958;SDS011;16815;51.100;6.516;2023-02-28T03:00:34;8.17;;;6.80;;
29958;SDS011;16815;51.100;6.516;2023-02-28T03:03:03;7.73;;;6.30;;
29958;SDS011;16815;51.100;6.516;2023-02-28T03:05:33;8.07;;;6.90;;
29958;SDS011;16815;51.100;6.516;2023-02-28T03:08:02;9.50;;;6.80;;
29958;SDS011;16815;51.100;6.516;2023-02-28T03:10:34;7.23;;;6.07;;
29958;SDS011;16815;51.100;6.516;2023-02-28T03:13:34;8.50;;;6.40;;
29958;SDS011;16815;51.100;6.516;2023-02-28T03:18:43;8.70;;;6.03;;
29958;SDS011;16815;51.100;6.516;2023-02-28T03:23:48;10.20;;;6.57;;
29958;SDS011;16815;51.100;6.516;2023-02-28T03:26:18;11.53;;;6.83;;
29958;SDS011;16815;51.100;6.516;2023-02-28T03:31:16;10.13;;;7.10;;
29958;SDS011;16815;51.100;6.516;2023-02-28T03:33:58;7.27;;;5.83;;
29958;SDS011;16815;51.100;6.516;2023-02-28T03:36:27;8.93;;;6.60;;
29958;SDS011;16815;51.100;6.516;2023-02-28T03:39:04;7.73;;;6.73;;
29958;SDS011;16815;51.100;6.516;2023-02-28T03:41:32;7.73;;;6.93;;
29958;SDS011;16815;51.100;6.516;2023-02-28T03:44:10;8.07;;;6.50;;
29958;SDS011;16815;51.100;6.516;2023-02-28T03:46:40;7.27;;;6.53;;
29958;SDS011;16815;51.100;6.516;2023-02-28T03:49:11;7.67;;;6.40;;
29958;SDS011;16815;51.100;6.516;2023-02-28T03:51:40;9.60;;;7.00;;
29958;SDS011;16815;51.100;6.516;2023-02-28T03:54:09;8.07;;;6.40;;
29958;SDS011;16815;51.100;6.516;2023-02-28T03:56:43;8.00;;;6.80;;
29958;SDS011;16815;51.100;6.516;2023-02-28T03:59:13;9.20;;;6.57;;
29958;SDS011;16815;51.100;6.516;2023-02-28T04:01:44;8.40;;;6.50;;
29958;SDS011;16815;51.100;6.516;2023-02-28T04:04:11;9.83;;;6.57;;
29958;SDS011;16815;51.100;6.516;2023-02-28T04:06:38;7.87;;;6.57;;
29958;SDS011;16815;51.100;6.516;2023-02-28T04:09:04;9.40;;;6.53;;
29958;SDS011;16815;51.100;6.516;2023-02-28T04:11:34;10.57;;;6.70;;
29958;SDS011;16815;51.100;6.516;2023-02-28T04:14:01;9.43;;;6.30;;
29958;SDS011;16815;51.100;6.516;2023-02-28T04:16:28;7.53;;;6.40;;
29958;SDS011;16815;51.100;6.516;2023-02-28T04:18:54;6.73;;;5.73;;
29958;SDS011;16815;51.100;6.516;2023-02-28T04:21:28;7.63;;;5.77;;
29958;SDS011;16815;51.100;6.516;2023-02-28T04:23:55;8.77;;;6.30;;
29958;SDS011;16815;51.100;6.516;2023-02-28T04:26:20;9.60;;;5.87;;
29958;SDS011;16815;51.100;6.516;2023-02-28T04:28:46;8.67;;;6.30;;
29958;SDS011;16815;51.100;6.516;2023-02-28T04:31:12;12.20;;;7.27;;
29958;SDS011;16815;51.100;6.516;2023-02-28T04:33:38;6.83;;;6.13;;
29958;SDS011;16815;51.100;6.516;2023-02-28T04:36:05;8.20;;;6.63;;
29958;SDS011;16815;51.100;6.516;2023-02-28T04:38:33;7.70;;;5.77;;
29958;SDS011;16815;51.100;6.516;2023-02-28T04:40:59;9.90;;;7.10;;
29958;SDS011;16815;51.100;6.516;2023-02-28T04:43:26;6.90;;;6.20;;
29958;SDS011;16815;51.100;6.516;2023-02-28T04:45:52;7.00;;;6.33;;
29958;SDS011;16815;51.100;6.516;2023-02-28T04:48:21;7.37;;;6.40;;
29958;SDS011;16815;51.100;6.516;2023-02-28T04:50:47;8.60;;;6.03;;
29958;SDS011;16815;51.100;6.516;2023-02-28T04:53:13;7.07;;;5.93;;
29958;SDS011;16815;51.100;6.516;2023-02-28T04:55:39;8.63;;;6.77;;
29958;SDS011;16815;51.100;6.516;2023-02-28T04:58:05;6.90;;;6.17;;
29958;SDS011;16815;51.100;6.516;2023-02-28T05:00:31;7.93;;;6.00;;
29958;SDS011;16815;51.100;6.516;2023-02-28T05:02:57;8.77;;;6.40;;
29958;SDS011;16815;51.100;6.516;2023-02-28T05:05:23;8.03;;;5.80;;
29958;SDS011;16815;51.100;6.516;2023-02-28T05:07:49;7.47;;;6.20;;
29958;SDS011;16815;51.100;6.516;2023-02-28T05:10:15;6.77;;;5.90;;
29958;SDS011;16815;51.100;6.516;2023-02-28T05:12:41;6.53;;;5.93;;
29958;SDS011;16815;51.100;6.516;2023-02-28T05:15:08;8.73;;;5.77;;
29958;SDS011;16815;51.100;6.516;2023-02-28T05:17:34;7.07;;;5.63;;
29958;SDS011;16815;51.100;6.516;2023-02-28T05:20:00;10.97;;;8.40;;
29958;SDS011;16815;51.100;6.516;2023-02-28T05:22:26;23.27;;;15.70;;
29958;SDS011;16815;51.100;6.516;2023-02-28T05:24:52;37.50;;;24.17;;
29958;SDS011;16815;51.100;6.516;2023-02-28T05:27:18;18.10;;;12.80;;
29958;SDS011;16815;51.100;6.516;2023-02-28T05:29:44;12.87;;;9.73;;
29958;SDS011;16815;51.100;6.516;2023-02-28T05:32:10;9.87;;;7.03;;
29958;SDS011;16815;51.100;6.516;2023-02-28T05:34:37;8.60;;;6.80;;
29958;SDS011;16815;51.100;6.516;2023-02-28T05:37:04;8.67;;;6.53;;
29958;SDS011;16815;51.100;6.516;2023-02-28T05:39:30;9.03;;;6.23;;
29958;SDS011;16815;51.100;6.516;2023-02-28T05:41:56;9.03;;;6.60;;
29958;SDS011;16815;51.100;6.516;2023-02-28T05:44:22;8.47;;;6.40;;
29958;SDS011;16815;51.100;6.516;2023-02-28T05:46:48;8.10;;;6.67;;
29958;SDS011;16815;51.100;6.516;2023-02-28T05:49:13;8.37;;;7.23;;
29958;SDS011;16815;51.100;6.516;2023-02-28T05:51:39;9.23;;;7.10;;
29958;SDS011;16815;51.100;6.516;2023-02-28T05:54:05;10.77;;;6.67;;
29958;SDS011;16815;51.100;6.516;2023-02-28T05:56:32;10.57;;;6.63;;
29958;SDS011;16815;51.100;6.516;2023-02-28T05:59:00;7.37;;;6.27;;
29958;SDS011;16815;51.100;6.516;2023-02-28T06:01:34;8.57;;;5.83;;
29958;SDS011;16815;51.100;6.516;2023-02-28T06:04:00;7.57;;;6.20;;
29958;SDS011;16815;51.100;6.516;2023-02-28T06:06:27;6.90;;;5.63;;
29958;SDS011;16815;51.100;6.516;2023-02-28T06:08:54;10.07;;;6.13;;
29958;SDS011;16815;51.100;6.516;2023-02-28T06:11:20;6.87;;;5.77;;
29958;SDS011;16815;51.100;6.516;2023-02-28T06:13:46;7.33;;;6.63;;
29958;SDS011;16815;51.100;6.516;2023-02-28T06:16:12;9.70;;;8.47;;
29958;SDS011;16815;51.100;6.516;2023-02-28T06:18:38;9.87;;;7.07;;
29958;SDS011;16815;51.100;6.516;2023-02-28T06:21:04;7.07;;;5.83;;
29958;SDS011;16815;51.100;6.516;2023-02-28T06:23:30;6.40;;;5.50;;
29958;SDS011;16815;51.100;6.516;2023-02-28T06:25:56;6.10;;;5.50;;
29958;SDS011;16815;51.100;6.516;2023-02-28T06:28:23;8.73;;;5.60;;
29958;SDS011;16815;51.100;6.516;2023-02-28T06:30:50;6.77;;;5.67;;
29958;SDS011;16815;51.100;6.516;2023-02-28T06:33:15;8.60;;;5.37;;
29958;SDS011;16815;51.100;6.516;2023-02-28T06:35:46;9.67;;;5.67;;
29958;SDS011;16815;51.100;6.516;2023-02-28T06:38:12;6.47;;;5.27;;
29958;SDS011;16815;51.100;6.516;2023-02-28T06:40:38;11.27;;;5.30;;
29958;SDS011;16815;51.100;6.516;2023-02-28T06:43:04;8.40;;;5.47;;
29958;SDS011;16815;51.100;6.516;2023-02-28T06:45:30;6.83;;;5.33;;
29958;SDS011;16815;51.100;6.516;2023-02-28T06:47:55;5.97;;;5.37;;
29958;SDS011;16815;51.100;6.516;2023-02-28T06:50:23;7.77;;;5.40;;
29958;SDS011;16815;51.100;6.516;2023-02-28T06:52:52;6.97;;;5.40;;
29958;SDS011;16815;51.100;6.516;2023-02-28T06:55:19;7.13;;;5.40;;
29958;SDS011;16815;51.100;6.516;2023-02-28T06:57:45;7.73;;;5.77;;
29958;SDS011;16815;51.100;6.516;2023-02-28T07:00:11;8.50;;;5.97;;
29958;SDS011;16815;51.100;6.516;2023-02-28T07:02:37;7.77;;;6.53;;
29958;SDS011;16815;51.100;6.516;2023-02-28T07:05:04;7.87;;;5.63;;
29958;SDS011;16815;51.100;6.516;2023-02-28T07:07:30;7.83;;;5.77;;
29958;SDS011;16815;51.100;6.516;2023-02-28T07:09:57;7.17;;;6.13;;
29958;SDS011;16815;51.100;6.516;2023-02-28T07:12:23;8.37;;;5.50;;
29958;SDS011;16815;51.100;6.516;2023-02-28T07:14:49;6.93;;;6.23;;
29958;SDS011;16815;51.100;6.516;2023-02-28T07:17:15;8.13;;;5.83;;
29958;SDS011;16815;51.100;6.516;2023-02-28T07:19:41;6.37;;;5.77;;
29958;SDS011;16815;51.100;6.516;2023-02-28T07:22:07;7.43;;;5.63;;
29958;SDS011;16815;51.100;6.516;2023-02-28T07:24:33;6.37;;;5.77;;
29958;SDS011;16815;51.100;6.516;2023-02-28T07:26:59;7.07;;;5.53;;
29958;SDS011;16815;51.100;6.516;2023-02-28T07:29:26;7.53;;;6.07;;
29958;SDS011;16815;51.100;6.516;2023-02-28T07:31:52;7.33;;;6.00;;
29958;SDS011;16815;51.100;6.516;2023-02-28T07:34:18;8.37;;;5.90;;
29958;SDS011;16815;51.100;6.516;2023-02-28T07:36:45;6.50;;;5.80;;
29958;SDS011;16815;51.100;6.516;2023-02-28T07:39:11;7.63;;;5.80;;
29958;SDS011;16815;51.100;6.516;2023-02-28T07:41:36;9.30;;;6.30;;
29958;SDS011;16815;51.100;6.516;2023-02-28T07:44:08;6.97;;;5.93;;
29958;SDS011;16815;51.100;6.516;2023-02-28T07:46:34;8.30;;;5.60;;
29958;SDS011;16815;51.100;6.516;2023-02-28T07:49:01;8.63;;;5.67;;
29958;SDS011;16815;51.100;6.516;2023-02-28T07:51:28;9.53;;;5.40;;
29958;SDS011;16815;51.100;6.516;2023-02-28T07:53:54;5.37;;;4.87;;
29958;SDS011;16815;51.100;6.516;2023-02-28T07:56:20;5.63;;;5.03;;
29958;SDS011;16815;51.100;6.516;2023-02-28T07:58:46;5.53;;;5.03;;
29958;SDS011;16815;51.100;6.516;2023-02-28T08:01:12;6.00;;;5.30;;
29958;SDS011;16815;51.100;6.516;2023-02-28T08:03:38;5.70;;;4.83;;
29958;SDS011;16815;51.100;6.516;2023-02-28T08:06:05;6.57;;;4.90;;
29958;SDS011;16815;51.100;6.516;2023-02-28T08:08:31;5.50;;;5.00;;
29958;SDS011;16815;51.100;6.516;2023-02-28T08:10:58;7.80;;;4.90;;
29958;SDS011;16815;51.100;6.516;2023-02-28T08:13:24;5.70;;;4.50;;
29958;SDS011;16815;51.100;6.516;2023-02-28T08:15:50;4.20;;;3.57;;
29958;SDS011;16815;51.100;6.516;2023-02-28T08:18:16;3.80;;;3.43;;
29958;SDS011;16815;51.100;6.516;2023-02-28T08:20:42;3.90;;;3.50;;
29958;SDS011;16815;51.100;6.516;2023-02-28T08:23:08;4.90;;;3.73;;
29958;SDS011;16815;51.100;6.516;2023-02-28T08:25:34;5.53;;;2.97;;
29958;SDS011;16815;51.100;6.516;2023-02-28T08:28:00;4.30;;;3.30;;
29958;SDS011;16815;51.100;6.516;2023-02-28T08:30:26;3.33;;;3.00;;
29958;SDS011;16815;51.100;6.516;2023-02-28T08:32:52;4.60;;;3.43;;
29958;SDS011;16815;51.100;6.516;2023-02-28T08:35:18;5.60;;;2.90;;
29958;SDS011;16815;51.100;6.516;2023-02-28T08:37:44;4.00;;;3.20;;
29958;SDS011;16815;51.100;6.516;2023-02-28T08:40:10;4.37;;;2.97;;
29958;SDS011;16815;51.100;6.516;2023-02-28T08:42:38;3.53;;;3.20;;
29958;SDS011;16815;51.100;6.516;2023-02-28T08:45:04;6.13;;;3.00;;
29958;SDS011;16815;51.100;6.516;2023-02-28T08:47:30;3.43;;;3.00;;
29958;SDS011;16815;51.100;6.516;2023-02-28T08:49:56;3.77;;;2.80;;
29958;SDS011;16815;51.100;6.516;2023-02-28T08:52:22;3.80;;;2.87;;
29958;SDS011;16815;51.100;6.516;2023-02-28T08:54:48;3.13;;;2.83;;
29958;SDS011;16815;51.100;6.516;2023-02-28T08:57:14;3.43;;;2.57;;
29958;SDS011;16815;51.100;6.516;2023-02-28T08:59:40;2.90;;;2.70;;
29958;SDS011;16815;51.100;6.516;2023-02-28T09:02:08;2.60;;;2.30;;
29958;SDS011;16815;51.100;6.516;2023-02-28T09:04:34;3.07;;;2.60;;
29958;SDS011;16815;51.100;6.516;2023-02-28T09:07:00;2.93;;;2.50;;
29958;SDS011;16815;51.100;6.516;2023-02-28T09:09:26;2.80;;;2.60;;
29958;SDS011;16815;51.100;6.516;2023-02-28T09:11:52;3.17;;;2.73;;
29958;SDS011;16815;51.100;6.516;2023-02-28T09:14:17;2.90;;;2.70;;
29958;SDS011;16815;51.100;6.516;2023-02-28T09:16:44;2.70;;;2.50;;
29958;SDS011;16815;51.100;6.516;2023-02-28T09:19:11;2.63;;;2.40;;
29958;SDS011;16815;51.100;6.516;2023-02-28T09:21:37;3.57;;;2.00;;
29958;SDS011;16815;51.100;6.516;2023-02-28T09:24:03;2.43;;;2.23;;
29958;SDS011;16815;51.100;6.516;2023-02-28T09:26:29;3.23;;;2.03;;
29958;SDS011;16815;51.100;6.516;2023-02-28T09:28:55;9.23;;;2.10;;
29958;SDS011;16815;51.100;6.516;2023-02-28T09:31:24;2.10;;;2.00;;
29958;SDS011;16815;51.100;6.516;2023-02-28T09:33:51;2.00;;;1.80;;
29958;SDS011;16815;51.100;6.516;2023-02-28T09:36:18;2.50;;;2.30;;
29958;SDS011;16815;51.100;6.516;2023-02-28T09:38:44;3.80;;;2.13;;
29958;SDS011;16815;51.100;6.516;2023-02-28T09:41:13;2.40;;;2.00;;
29958;SDS011;16815;51.100;6.516;2023-02-28T09:43:41;2.07;;;1.87;;
29958;SDS011;16815;51.100;6.516;2023-02-28T09:46:28;2.20;;;2.10;;
29958;SDS011;16815;51.100;6.516;2023-02-28T09:48:56;2.30;;;2.10;;
29958;SDS011;16815;51.100;6.516;2023-02-28T09:54:00;2.67;;;2.20;;
29958;SDS011;16815;51.100;6.516;2023-02-28T09:56:36;2.30;;;2.10;;
29958;SDS011;16815;51.100;6.516;2023-02-28T09:59:05;2.20;;;2.10;;
29958;SDS011;16815;51.100;6.516;2023-02-28T10:01:51;2.83;;;2.20;;
29958;SDS011;16815;51.100;6.516;2023-02-28T10:07:06;2.40;;;2.20;;
29958;SDS011;16815;51.100;6.516;2023-02-28T10:09:34;2.50;;;2.13;;
29958;SDS011;16815;51.100;6.516;2023-02-28T10:12:03;2.37;;;2.17;;
29958;SDS011;16815;51.100;6.516;2023-02-28T10:14:31;2.63;;;2.20;;
29958;SDS011;16815;51.100;6.516;2023-02-28T10:17:03;2.50;;;2.30;;
29958;SDS011;16815;51.100;6.516;2023-02-28T10:22:03;2.30;;;2.10;;
29958;SDS011;16815;51.100;6.516;2023-02-28T10:24:32;3.33;;;2.33;;
29958;SDS011;16815;51.100;6.516;2023-02-28T10:27:21;3.57;;;2.20;;
29958;SDS011;16815;51.100;6.516;2023-02-28T10:29:48;2.17;;;2.07;;
29958;SDS011;16815;51.100;6.516;2023-02-28T10:32:16;2.70;;;2.30;;
29958;SDS011;16815;51.100;6.516;2023-02-28T10:34:42;3.57;;;2.40;;
29958;SDS011;16815;51.100;6.516;2023-02-28T10:37:08;3.90;;;2.30;;
29958;SDS011;16815;51.100;6.516;2023-02-28T10:39:36;4.13;;;2.30;;
29958;SDS011;16815;51.100;6.516;2023-02-28T10:42:03;2.67;;;2.47;;
29958;SDS011;16815;51.100;6.516;2023-02-28T10:44:29;2.50;;;2.30;;
29958;SDS011;16815;51.100;6.516;2023-02-28T10:46:55;2.87;;;2.30;;
29958;SDS011;16815;51.100;6.516;2023-02-28T10:49:28;2.83;;;2.20;;
29958;SDS011;16815;51.100;6.516;2023-02-28T10:51:55;2.33;;;2.10;;
29958;SDS011;16815;51.100;6.516;2023-02-28T10:54:23;3.13;;;2.30;;
29958;SDS011;16815;51.100;6.516;2023-02-28T10:59:34;4.03;;;2.30;;
29958;SDS011;16815;51.100;6.516;2023-02-28T11:02:01;3.20;;;2.30;;
29958;SDS011;16815;51.100;6.516;2023-02-28T11:09:31;2.20;;;2.10;;
29958;SDS011;16815;51.100;6.516;2023-02-28T11:11:59;3.43;;;2.60;;
29958;SDS011;16815;51.100;6.516;2023-02-28T11:14:29;2.93;;;2.20;;
29958;SDS011;16815;51.100;6.516;2023-02-28T11:16:57;2.47;;;2.27;;
29958;SDS011;16815;51.100;6.516;2023-02-28T11:19:38;3.00;;;2.30;;
29958;SDS011;16815;51.100;6.516;2023-02-28T11:22:05;4.17;;;2.77;;
29958;SDS011;16815;51.100;6.516;2023-02-28T11:24:35;2.70;;;2.50;;
29958;SDS011;16815;51.100;6.516;2023-02-28T11:27:02;3.03;;;2.40;;
29958;SDS011;16815;51.100;6.516;2023-02-28T11:29:31;2.33;;;2.20;;
29958;SDS011;16815;51.100;6.516;2023-02-28T11:34:36;4.53;;;2.60;;
29958;SDS011;16815;51.100;6.516;2023-02-28T11:37:02;3.10;;;2.53;;
29958;SDS011;16815;51.100;6.516;2023-02-28T11:39:30;4.10;;;2.60;;
29958;SDS011;16815;51.100;6.516;2023-02-28T11:50:16;3.13;;;2.40;;
29958;SDS011;16815;51.100;6.516;2023-02-28T11:52:51;4.87;;;2.90;;
29958;SDS011;16815;51.100;6.516;2023-02-28T11:55:26;5.00;;;2.60;;
29958;SDS011;16815;51.100;6.516;2023-02-28T11:57:57;3.17;;;2.43;;
29958;SDS011;16815;51.100;6.516;2023-02-28T12:08:08;4.53;;;2.77;;
29958;SDS011;16815;51.100;6.516;2023-02-28T12:10:57;3.33;;;2.67;;
29958;SDS011;16815;51.100;6.516;2023-02-28T12:13:26;2.77;;;2.57;;
29958;SDS011;16815;51.100;6.516;2023-02-28T12:15:58;2.50;;;2.30;;
29958;SDS011;16815;51.100;6.516;2023-02-28T12:21:14;3.40;;;2.60;;
29958;SDS011;16815;51.100;6.516;2023-02-28T12:24:06;3.50;;;2.80;;
29958;SDS011;16815;51.100;6.516;2023-02-28T12:26:38;4.07;;;2.57;;
29958;SDS011;16815;51.100;6.516;2023-02-28T12:29:19;2.70;;;2.50;;
29958;SDS011;16815;51.100;6.516;2023-02-28T12:31:47;3.03;;;2.83;;
29958;SDS011;16815;51.100;6.516;2023-02-28T12:34:19;4.43;;;2.50;;
29958;SDS011;16815;51.100;6.516;2023-02-28T12:36:46;2.70;;;2.50;;
29958;SDS011;16815;51.100;6.516;2023-02-28T12:39:21;4.83;;;2.63;;
29958;SDS011;16815;51.100;6.516;2023-02-28T12:41:56;2.63;;;2.40;;
29958;SDS011;16815;51.100;6.516;2023-02-28T12:44:39;3.50;;;2.80;;
29958;SDS011;16815;51.100;6.516;2023-02-28T12:47:09;3.27;;;2.97;;
29958;SDS011;16815;51.100;6.516;2023-02-28T12:49:38;3.37;;;2.60;;
29958;SDS011;16815;51.100;6.516;2023-02-28T12:52:04;2.80;;;2.60;;
29958;SDS011;16815;51.100;6.516;2023-02-28T12:59:37;2.80;;;2.60;;
29958;SDS011;16815;51.100;6.516;2023-02-28T13:07:19;3.03;;;2.77;;
29958;SDS011;16815;51.100;6.516;2023-02-28T13:09:53;3.00;;;2.70;;
29958;SDS011;16815;51.100;6.516;2023-02-28T13:12:20;2.93;;;2.60;;
29958;SDS011;16815;51.100;6.516;2023-02-28T13:14:47;3.17;;;2.60;;
29958;SDS011;16815;51.100;6.516;2023-02-28T13:17:18;2.87;;;2.67;;
29958;SDS011;16815;51.100;6.516;2023-02-28T13:22:36;3.30;;;3.00;;
29958;SDS011;16815;51.100;6.516;2023-02-28T13:25:04;2.97;;;2.70;;
29958;SDS011;16815;51.100;6.516;2023-02-28T13:27:49;2.97;;;2.70;;
29958;SDS011;16815;51.100;6.516;2023-02-28T13:36:00;2.87;;;2.67;;
29958;SDS011;16815;51.100;6.516;2023-02-28T13:38:33;5.20;;;2.90;;
29958;SDS011;16815;51.100;6.516;2023-02-28T13:46:28;2.83;;;2.50;;
29958;SDS011;16815;51.100;6.516;2023-02-28T13:48:54;3.23;;;2.87;;
29958;SDS011;16815;51.100;6.516;2023-02-28T13:51:43;3.57;;;2.90;;
29958;SDS011;16815;51.100;6.516;2023-02-28T13:54:16;3.20;;;2.90;;
29958;SDS011;16815;51.100;6.516;2023-02-28T13:56:48;3.10;;;2.87;;
29958;SDS011;16815;51.100;6.516;2023-02-28T13:59:31;4.43;;;2.90;;
29958;SDS011;16815;51.100;6.516;2023-02-28T14:02:11;4.53;;;2.90;;
29958;SDS011;16815;51.100;6.516;2023-02-28T14:07:06;3.23;;;2.93;;
29958;SDS011;16815;51.100;6.516;2023-02-28T14:09:39;3.67;;;2.77;;
29958;SDS011;16815;51.100;6.516;2023-02-28T14:17:17;3.57;;;3.23;;
29958;SDS011;16815;51.100;6.516;2023-02-28T14:19:43;3.00;;;2.70;;
29958;SDS011;16815;51.100;6.516;2023-02-28T14:27:35;2.97;;;2.70;;
29958;SDS011;16815;51.100;6.516;2023-02-28T14:30:09;4.00;;;2.80;;
29958;SDS011;16815;51.100;6.516;2023-02-28T14:37:53;4.37;;;3.40;;
29958;SDS011;16815;51.100;6.516;2023-02-28T14:40:21;3.27;;;2.97;;
29958;SDS011;16815;51.100;6.516;2023-02-28T14:42:56;4.07;;;3.60;;
29958;SDS011;16815;51.100;6.516;2023-02-28T14:45:22;3.17;;;2.40;;
29958;SDS011;16815;51.100;6.516;2023-02-28T14:47:49;5.93;;;2.87;;
29958;SDS011;16815;51.100;6.516;2023-02-28T14:50:19;2.80;;;2.60;;
29958;SDS011;16815;51.100;6.516;2023-02-28T14:52:46;7.83;;;3.03;;
29958;SDS011;16815;51.100;6.516;2023-02-28T14:55:14;2.93;;;2.43;;
29958;SDS011;16815;51.100;6.516;2023-02-28T14:58:02;4.77;;;2.83;;
29958;SDS011;16815;51.100;6.516;2023-02-28T15:00:34;2.70;;;2.50;;
29958;SDS011;16815;51.100;6.516;2023-02-28T15:05:57;3.10;;;2.90;;
29958;SDS011;16815;51.100;6.516;2023-02-28T15:08:23;2.80;;;2.60;;
29958;SDS011;16815;51.100;6.516;2023-02-28T15:10:56;3.40;;;3.10;;
29958;SDS011;16815;51.100;6.516;2023-02-28T15:13:23;3.30;;;2.70;;
29958;SDS011;16815;51.100;6.516;2023-02-28T15:20:47;3.10;;;2.80;;
29958;SDS011;16815;51.100;6.516;2023-02-28T15:23:13;3.00;;;2.70;;
29958;SDS011;16815;51.100;6.516;2023-02-28T15:25:40;3.20;;;2.97;;
29958;SDS011;16815;51.100;6.516;2023-02-28T15:28:09;2.90;;;2.70;;
29958;SDS011;16815;51.100;6.516;2023-02-28T15:30:37;4.07;;;3.13;;
29958;SDS011;16815;51.100;6.516;2023-02-28T15:35:31;3.10;;;2.90;;
29958;SDS011;16815;51.100;6.516;2023-02-28T15:38:01;4.47;;;3.33;;
29958;SDS011;16815;51.100;6.516;2023-02-28T15:40:30;6.37;;;3.60;;
29958;SDS011;16815;51.100;6.516;2023-02-28T15:43:16;5.17;;;3.40;;
29958;SDS011;16815;51.100;6.516;2023-02-28T15:48:18;3.60;;;3.30;;
29958;SDS011;16815;51.100;6.516;2023-02-28T15:50:49;5.03;;;4.33;;
29958;SDS011;16815;51.100;6.516;2023-02-28T15:53:16;3.97;;;3.23;;
29958;SDS011;16815;51.100;6.516;2023-02-28T15:55:43;3.87;;;3.50;;
29958;SDS011;16815;51.100;6.516;2023-02-28T15:58:10;3.40;;;3.10;;
29958;SDS011;16815;51.100;6.516;2023-02-28T16:00:38;3.23;;;2.93;;
29958;SDS011;16815;51.100;6.516;2023-02-28T16:03:23;4.63;;;3.30;;
29958;SDS011;16815;51.100;6.516;2023-02-28T16:06:07;3.50;;;3.20;;
29958;SDS011;16815;51.100;6.516;2023-02-28T16:08:33;4.07;;;3.20;;
29958;SDS011;16815;51.100;6.516;2023-02-28T16:10:59;3.50;;;3.20;;
29958;SDS011;16815;51.100;6.516;2023-02-28T16:13:25;6.60;;;4.10;;
29958;SDS011;16815;51.100;6.516;2023-02-28T16:15:51;5.67;;;4.00;;
29958;SDS011;16815;51.100;6.516;2023-02-28T16:18:17;5.70;;;3.80;;
29958;SDS011;16815;51.100;6.516;2023-02-28T16:20:43;6.70;;;5.00;;
29958;SDS011;16815;51.100;6.516;2023-02-28T16:23:09;8.70;;;5.83;;
29958;SDS011;16815;51.100;6.516;2023-02-28T16:25:38;5.13;;;4.20;;
29958;SDS011;16815;51.100;6.516;2023-02-28T16:28:08;7.20;;;4.50;;
29958;SDS011;16815;51.100;6.516;2023-02-28T16:30:35;3.97;;;3.57;;
29958;SDS011;16815;51.100;6.516;2023-02-28T16:33:01;3.90;;;3.43;;
29958;SDS011;16815;51.100;6.516;2023-02-28T16:35:27;4.63;;;3.60;;
29958;SDS011;16815;51.100;6.516;2023-02-28T16:37:53;4.37;;;3.90;;
29958;SDS011;16815;51.100;6.516;2023-02-28T16:40:23;5.03;;;4.57;;
29958;SDS011;16815;51.100;6.516;2023-02-28T16:42:50;4.53;;;4.13;;
29958;SDS011;16815;51.100;6.516;2023-02-28T16:45:18;6.47;;;4.13;;
29958;SDS011;16815;51.100;6.516;2023-02-28T16:47:44;8.47;;;5.53;;
29958;SDS011;16815;51.100;6.516;2023-02-28T16:50:20;8.47;;;6.07;;
29958;SDS011;16815;51.100;6.516;2023-02-28T16:52:46;9.80;;;4.30;;